Time;durP1;ratioP1;P1;durP2;ratioP2;P2;SDS_P1;SDS_P2;PMS_P1;PMS_P2;Temp;Humidity;BMP_temperature;BMP_pressure;BME280_temperature;BME280_humidity;BME280_pressure;Samples;Min_cycle;Max_cycle;Signal;HPM_P1;HPM_P2
2024/02/25 00:00:20;;;;;;;6.07;5.57;;;9.10;58.70;;;;;;5007990;28;20189;-56
2024/02/25 00:02:46;;;;;;;5.10;4.70;;;9.00;59.00;;;;;;5001358;28;20213;-56
2024/02/25 00:05:12;;;;;;;5.70;5.20;;;9.00;59.10;;;;;;5006102;28;20657;-56
2024/02/25 00:07:37;;;;;;;4.90;3.97;;;8.80;59.30;;;;;;5003263;28;20880;-59
2024/02/25 00:10:03;;;;;;;4.83;4.33;;;8.70;59.80;;;;;;5004152;28;20449;-58
2024/02/25 00:12:29;;;;;;;5.30;4.80;;;8.60;60.20;;;;;;5004886;28;20201;-58
2024/02/25 00:14:55;;;;;;;4.10;3.40;;;8.60;60.50;;;;;;5002492;28;20459;-55
2024/02/25 00:17:20;;;;;;;4.27;3.93;;;8.50;60.60;;;;;;5003409;28;20321;-55
2024/02/25 00:19:46;;;;;;;4.37;3.97;;;8.50;60.90;;;;;;5001272;28;20661;-55
2024/02/25 00:22:12;;;;;;;5.43;4.57;;;8.50;60.90;;;;;;5003330;28;20189;-54
2024/02/25 00:24:38;;;;;;;8.20;5.33;;;8.70;60.70;;;;;;5008912;28;20186;-55
2024/02/25 00:27:04;;;;;;;4.30;3.90;;;8.50;60.50;;;;;;4999183;28;20256;-58
2024/02/25 00:29:29;;;;;;;5.50;4.27;;;8.40;60.80;;;;;;4999056;28;20472;-56
2024/02/25 00:31:55;;;;;;;8.43;3.70;;;8.00;62.20;;;;;;4998250;28;20449;-59
2024/02/25 00:34:21;;;;;;;4.93;4.40;;;8.10;62.90;;;;;;4996507;28;20190;-57
2024/02/25 00:36:48;;;;;;;5.60;3.43;;;8.00;62.80;;;;;;5001607;28;20209;-57
2024/02/25 00:39:17;;;;;;;3.97;3.40;;;7.70;63.70;;;;;;5000091;28;20221;-57
2024/02/25 00:41:44;;;;;;;3.50;3.20;;;7.60;64.50;;;;;;5000332;28;20444;-55
2024/02/25 00:44:09;;;;;;;3.70;3.30;;;7.50;64.50;;;;;;4997254;28;21711;-57
2024/02/25 00:46:35;;;;;;;3.37;3.07;;;7.40;65.70;;;;;;4999379;28;20461;-56
2024/02/25 00:49:01;;;;;;;3.73;3.43;;;7.20;66.40;;;;;;4999985;28;20217;-56
2024/02/25 00:51:27;;;;;;;5.03;3.47;;;7.30;66.60;;;;;;4997384;28;20577;-56
2024/02/25 00:53:52;;;;;;;4.43;3.90;;;7.50;65.90;;;;;;4998441;28;20189;-54
2024/02/25 00:56:18;;;;;;;4.13;3.73;;;7.70;65.20;;;;;;5000601;28;21274;-54
2024/02/25 00:58:44;;;;;;;4.47;3.93;;;7.90;64.60;;;;;;4998610;28;20448;-56
2024/02/25 01:01:16;;;;;;;3.50;3.20;;;8.00;63.30;;;;;;5001628;28;20186;-57
2024/02/25 01:03:42;;;;;;;3.90;3.57;;;8.00;63.20;;;;;;4997745;28;20205;-55
2024/02/25 01:06:08;;;;;;;3.60;3.30;;;7.90;63.10;;;;;;5002341;28;21245;-54
2024/02/25 01:08:38;;;;;;;3.23;3.03;;;8.10;62.80;;;;;;5001310;28;20477;-56
2024/02/25 01:11:07;;;;;;;4.47;3.60;;;8.20;62.30;;;;;;5001448;28;20220;-57
2024/02/25 01:13:33;;;;;;;3.73;3.43;;;8.10;62.20;;;;;;5001003;28;20428;-59
2024/02/25 01:16:02;;;;;;;5.43;4.13;;;7.90;62.80;;;;;;5003531;28;20589;-59
2024/02/25 01:18:32;;;;;;;5.60;3.30;;;7.60;63.80;;;;;;5003853;28;20444;-59
2024/02/25 01:20:58;;;;;;;5.67;4.37;;;7.60;64.30;;;;;;5002007;28;20895;-58
2024/02/25 01:23:24;;;;;;;6.57;4.13;;;7.50;63.90;;;;;;5000710;28;20591;-59
2024/02/25 01:25:51;;;;;;;3.93;3.50;;;7.60;64.00;;;;;;5001854;28;20506;-54
2024/02/25 01:28:17;;;;;;;4.97;3.20;;;7.50;64.00;;;;;;4998504;28;20476;-59
2024/02/25 01:30:42;;;;;;;3.50;3.20;;;7.40;64.20;;;;;;5004378;28;20433;-53
2024/02/25 01:33:08;;;;;;;4.57;3.70;;;7.40;64.60;;;;;;5005060;28;20432;-56
2024/02/25 01:35:34;;;;;;;3.30;3.00;;;7.20;65.60;;;;;;5002966;28;20213;-58
2024/02/25 01:37:59;;;;;;;3.40;3.10;;;7.10;65.90;;;;;;5000048;28;20468;-58
2024/02/25 01:40:25;;;;;;;3.00;2.80;;;7.10;66.00;;;;;;5004020;28;20210;-55
2024/02/25 01:43:07;;;;;;;3.90;2.87;;;7.20;66.30;;;;;;5006875;28;20186;-54
2024/02/25 01:45:33;;;;;;;4.90;4.07;;;7.10;66.20;;;;;;5006991;28;20182;-55
2024/02/25 01:47:58;;;;;;;3.93;3.10;;;7.30;66.00;;;;;;5001609;28;20504;-58
2024/02/25 01:50:25;;;;;;;3.30;3.00;;;7.50;64.90;;;;;;5010532;28;20198;-57
2024/02/25 01:52:54;;;;;;;4.43;3.30;;;7.50;64.00;;;;;;5010544;28;20190;-56
2024/02/25 01:55:24;;;;;;;3.93;3.23;;;7.30;64.80;;;;;;5009797;28;20428;-54
2024/02/25 01:57:50;;;;;;;3.47;3.17;;;7.30;64.70;;;;;;5007902;28;20540;-56
2024/02/25 02:00:17;;;;;;;3.60;3.30;;;7.20;65.40;;;;;;5008215;28;20445;-53
2024/02/25 02:02:43;;;;;;;3.87;3.07;;;7.10;65.00;;;;;;5007678;28;20421;-54
2024/02/25 02:05:09;;;;;;;7.60;5.40;;;7.10;65.40;;;;;;5004682;28;20504;-55
2024/02/25 02:07:36;;;;;;;6.40;4.63;;;7.10;65.30;;;;;;5009427;28;20448;-54
2024/02/25 02:10:07;;;;;;;3.00;2.70;;;7.20;65.30;;;;;;5003467;28;20563;-59
2024/02/25 02:12:42;;;;;;;3.90;3.30;;;7.20;65.00;;;;;;5001946;28;20434;-55
2024/02/25 02:15:11;;;;;;;2.90;2.70;;;6.80;66.10;;;;;;5004110;28;20437;-59
2024/02/25 02:17:41;;;;;;;4.43;3.10;;;6.90;66.20;;;;;;5000406;28;20844;-54
2024/02/25 02:20:20;;;;;;;3.03;2.73;;;6.80;66.40;;;;;;5001389;28;20972;-54
2024/02/25 02:22:46;;;;;;;3.07;2.77;;;6.80;66.80;;;;;;5002360;28;20428;-54
2024/02/25 02:25:17;;;;;;;3.30;3.00;;;6.90;67.00;;;;;;5002437;28;20459;-58
2024/02/25 02:27:44;;;;;;;4.57;3.20;;;6.90;66.70;;;;;;5002090;28;20822;-55
2024/02/25 02:30:10;;;;;;;3.07;2.80;;;6.90;67.30;;;;;;5001968;28;20496;-55
2024/02/25 02:32:37;;;;;;;3.33;3.00;;;6.80;66.60;;;;;;4998634;28;20834;-56
2024/02/25 02:35:03;;;;;;;4.23;3.30;;;6.70;66.80;;;;;;4999758;28;20428;-57
2024/02/25 02:37:29;;;;;;;4.90;2.87;;;6.60;67.20;;;;;;5005914;28;21057;-55
2024/02/25 02:39:55;;;;;;;2.93;2.63;;;6.60;67.50;;;;;;5001658;28;20988;-55
2024/02/25 02:42:21;;;;;;;3.20;2.90;;;6.40;68.00;;;;;;4999376;28;20456;-56
2024/02/25 02:44:48;;;;;;;4.37;2.90;;;6.60;68.20;;;;;;4999494;28;20448;-58
2024/02/25 02:47:15;;;;;;;3.83;3.17;;;6.60;67.40;;;;;;4996196;28;20217;-56
2024/02/25 02:49:41;;;;;;;4.37;3.60;;;6.50;68.00;;;;;;5000525;28;20481;-56
2024/02/25 02:52:07;;;;;;;2.90;2.53;;;6.60;67.50;;;;;;4998598;28;20448;-55
2024/02/25 02:54:32;;;;;;;3.37;2.70;;;6.70;67.40;;;;;;4999128;28;20428;-56
2024/02/25 02:56:58;;;;;;;3.50;2.60;;;6.80;66.60;;;;;;5000686;28;20218;-58
2024/02/25 02:59:23;;;;;;;2.90;2.70;;;6.80;66.10;;;;;;5002293;28;20181;-54
2024/02/25 03:01:52;;;;;;;4.73;2.57;;;6.80;66.60;;;;;;5008487;28;20194;-56
2024/02/25 03:04:18;;;;;;;3.30;2.60;;;6.90;66.00;;;;;;4999563;28;20190;-59
2024/02/25 03:06:44;;;;;;;2.80;2.60;;;7.00;65.40;;;;;;5003649;28;20503;-54
2024/02/25 03:09:12;;;;;;;3.93;2.90;;;6.80;65.50;;;;;;5008103;28;20481;-54
2024/02/25 03:11:38;;;;;;;2.77;2.57;;;7.00;65.40;;;;;;5007426;28;20457;-54
2024/02/25 03:14:04;;;;;;;2.80;2.60;;;7.10;65.00;;;;;;5007185;28;20498;-54
2024/02/25 03:16:29;;;;;;;3.80;2.87;;;7.10;64.50;;;;;;5006786;28;20268;-55
2024/02/25 03:18:55;;;;;;;2.60;2.40;;;7.30;64.10;;;;;;5001448;28;20264;-56
2024/02/25 03:21:20;;;;;;;3.07;2.77;;;7.20;63.20;;;;;;5006876;28;20269;-54
2024/02/25 03:23:46;;;;;;;3.33;2.70;;;7.10;63.80;;;;;;5007597;28;20194;-54
2024/02/25 03:26:16;;;;;;;2.40;2.07;;;7.20;63.70;;;;;;5003306;28;20197;-58
2024/02/25 03:28:42;;;;;;;2.60;2.40;;;7.20;63.40;;;;;;5001853;28;20217;-56
2024/02/25 03:31:08;;;;;;;3.33;2.53;;;7.20;63.10;;;;;;5006342;28;20443;-55
2024/02/25 03:33:34;;;;;;;2.20;2.10;;;7.10;63.40;;;;;;5001049;28;20607;-54
2024/02/25 03:35:59;;;;;;;3.80;2.43;;;7.10;63.40;;;;;;5006902;28;20457;-56
2024/02/25 03:38:25;;;;;;;2.83;2.63;;;7.20;63.40;;;;;;5004634;28;20224;-56
2024/02/25 03:40:51;;;;;;;2.10;2.00;;;7.30;63.00;;;;;;5006233;28;20295;-54
2024/02/25 03:43:17;;;;;;;2.60;2.40;;;7.00;63.00;;;;;;5001479;28;20270;-57
2024/02/25 03:45:43;;;;;;;2.70;2.50;;;7.10;63.40;;;;;;5009195;28;20676;-54
2024/02/25 03:48:09;;;;;;;2.80;2.60;;;7.10;62.80;;;;;;5005528;28;20480;-54
2024/02/25 03:50:34;;;;;;;3.20;2.90;;;7.00;63.20;;;;;;5006574;28;20491;-54
2024/02/25 03:53:00;;;;;;;2.63;2.37;;;6.90;64.00;;;;;;5004341;28;20186;-54
2024/02/25 03:55:25;;;;;;;3.07;2.13;;;6.90;63.30;;;;;;5007145;28;20178;-56
2024/02/25 03:57:51;;;;;;;2.33;2.13;;;7.00;63.80;;;;;;5003915;28;20701;-55
2024/02/25 04:00:17;;;;;;;2.60;2.40;;;7.00;62.60;;;;;;5004952;28;20555;-53
2024/02/25 04:02:45;;;;;;;3.57;2.73;;;7.10;62.50;;;;;;5006290;28;20278;-55
2024/02/25 04:05:15;;;;;;;2.70;2.33;;;7.20;62.10;;;;;;5007102;28;20452;-54
2024/02/25 04:07:45;;;;;;;3.90;2.67;;;7.30;61.50;;;;;;4998791;28;20468;-56
2024/02/25 04:10:11;;;;;;;3.73;3.27;;;7.40;60.70;;;;;;5008507;28;21065;-55
2024/02/25 04:12:39;;;;;;;3.40;2.70;;;7.40;61.10;;;;;;5004123;28;20848;-56
2024/02/25 04:15:05;;;;;;;2.17;2.07;;;7.10;60.40;;;;;;5007036;28;20457;-57
2024/02/25 04:17:33;;;;;;;2.47;2.27;;;6.80;61.40;;;;;;5001326;28;20464;-56
2024/02/25 04:19:59;;;;;;;2.77;2.57;;;6.50;62.90;;;;;;5007619;28;20425;-56
2024/02/25 04:22:25;;;;;;;3.10;2.47;;;6.40;63.80;;;;;;5001409;28;20451;-55
2024/02/25 04:24:51;;;;;;;3.20;2.37;;;6.30;64.50;;;;;;4999511;28;20532;-59
2024/02/25 04:27:17;;;;;;;3.43;3.13;;;6.20;65.30;;;;;;5000048;28;20233;-55
2024/02/25 04:29:46;;;;;;;2.50;2.30;;;6.10;66.00;;;;;;4997377;28;21319;-58
2024/02/25 04:32:13;;;;;;;2.70;2.47;;;6.20;66.00;;;;;;4996657;28;20453;-57
2024/02/25 04:34:39;;;;;;;3.40;3.10;;;6.10;65.90;;;;;;5001336;28;20538;-58
2024/02/25 04:37:05;;;;;;;2.60;2.40;;;5.90;66.90;;;;;;5003472;28;21062;-55
2024/02/25 04:39:30;;;;;;;4.93;2.33;;;5.80;67.20;;;;;;5001361;28;20434;-54
2024/02/25 04:41:56;;;;;;;3.20;2.70;;;5.90;67.50;;;;;;5008115;28;21954;-58
2024/02/25 04:44:22;;;;;;;2.63;2.43;;;5.90;67.70;;;;;;5007140;28;20745;-55
2024/02/25 04:46:48;;;;;;;2.50;2.27;;;5.90;67.80;;;;;;5003680;28;21716;-57
2024/02/25 04:49:16;;;;;;;4.70;2.77;;;5.90;67.60;;;;;;5006303;28;20535;-55
2024/02/25 04:51:45;;;;;;;3.80;1.97;;;6.10;67.40;;;;;;5010065;28;20272;-56
2024/02/25 04:54:13;;;;;;;2.93;2.13;;;6.00;67.30;;;;;;5007003;28;20437;-54
2024/02/25 04:56:39;;;;;;;2.70;2.37;;;6.10;67.00;;;;;;5008620;28;20452;-55
2024/02/25 04:59:04;;;;;;;1.87;1.73;;;6.30;67.00;;;;;;5010248;28;20531;-55
2024/02/25 05:01:30;;;;;;;2.53;2.10;;;6.40;65.40;;;;;;5007711;28;20535;-56
2024/02/25 05:03:56;;;;;;;2.47;2.27;;;6.50;64.80;;;;;;5000708;28;20186;-56
2024/02/25 05:06:21;;;;;;;3.03;2.37;;;6.50;64.60;;;;;;5005370;28;20652;-58
2024/02/25 05:08:47;;;;;;;2.97;2.70;;;6.70;64.00;;;;;;5004497;28;20214;-55
2024/02/25 05:11:12;;;;;;;4.40;2.43;;;6.80;63.60;;;;;;5004685;28;20752;-54
2024/02/25 05:13:38;;;;;;;2.60;2.37;;;6.80;63.30;;;;;;5002090;28;20190;-56
2024/02/25 05:16:08;;;;;;;3.50;2.80;;;6.80;63.30;;;;;;5000615;28;20213;-54
2024/02/25 05:18:33;;;;;;;2.53;2.33;;;6.90;63.00;;;;;;5006001;28;20186;-56
2024/02/25 05:21:02;;;;;;;2.40;2.20;;;6.80;62.90;;;;;;5001469;28;21311;-55
2024/02/25 05:23:30;;;;;;;2.90;2.30;;;6.50;63.80;;;;;;5002298;28;20216;-56
2024/02/25 05:25:56;;;;;;;3.73;2.50;;;6.40;64.90;;;;;;5006380;28;20433;-57
2024/02/25 05:28:21;;;;;;;4.93;2.83;;;6.40;65.10;;;;;;5000333;28;20498;-56
2024/02/25 05:30:47;;;;;;;2.53;2.23;;;6.30;65.10;;;;;;5007393;28;20193;-56
2024/02/25 05:33:14;;;;;;;2.73;2.10;;;6.50;65.10;;;;;;5005037;28;20685;-58
2024/02/25 05:35:41;;;;;;;1.90;1.77;;;6.60;64.70;;;;;;5003069;28;20189;-59
2024/02/25 05:38:06;;;;;;;2.43;2.23;;;6.70;64.30;;;;;;5000706;28;20455;-56
2024/02/25 05:40:32;;;;;;;3.33;2.73;;;6.80;63.50;;;;;;5002114;28;20437;-55
2024/02/25 05:42:57;;;;;;;3.33;2.13;;;6.90;63.00;;;;;;5006273;28;21041;-54
2024/02/25 05:45:23;;;;;;;2.57;2.10;;;6.80;63.10;;;;;;5008178;28;20661;-54
2024/02/25 05:47:48;;;;;;;3.00;2.13;;;7.00;62.90;;;;;;5003137;28;20309;-56
2024/02/25 05:50:14;;;;;;;2.20;2.00;;;7.00;62.40;;;;;;5006687;28;20255;-58
2024/02/25 05:52:42;;;;;;;3.27;1.90;;;7.00;62.60;;;;;;5009275;28;20677;-54
2024/02/25 05:55:10;;;;;;;3.70;2.97;;;7.00;62.40;;;;;;5009950;28;20182;-58
2024/02/25 05:57:35;;;;;;;3.23;2.17;;;7.10;62.40;;;;;;5006979;28;20445;-57
2024/02/25 06:00:01;;;;;;;2.13;2.00;;;7.20;61.70;;;;;;5006357;28;20790;-58
2024/02/25 06:02:27;;;;;;;4.13;2.33;;;7.20;61.40;;;;;;5008706;28;20186;-56
2024/02/25 06:04:53;;;;;;;2.97;2.20;;;7.20;61.20;;;;;;5006182;28;20421;-54
2024/02/25 06:07:19;;;;;;;2.33;2.20;;;7.30;61.00;;;;;;5003663;28;20221;-56
2024/02/25 06:09:44;;;;;;;2.13;1.93;;;7.30;60.60;;;;;;5008598;28;20872;-57
2024/02/25 06:12:10;;;;;;;3.17;2.30;;;7.20;60.70;;;;;;5003711;28;20547;-56
2024/02/25 06:14:36;;;;;;;2.27;1.90;;;7.20;60.60;;;;;;5005991;28;20190;-54
2024/02/25 06:17:01;;;;;;;2.00;1.87;;;7.30;60.40;;;;;;5004032;28;20611;-57
2024/02/25 06:19:27;;;;;;;2.03;1.93;;;7.50;59.90;;;;;;5011330;28;20276;-59
2024/02/25 06:21:52;;;;;;;2.37;2.10;;;7.60;59.40;;;;;;5006899;28;20190;-55
2024/02/25 06:24:18;;;;;;;2.10;1.90;;;7.30;59.30;;;;;;5008547;28;20190;-53
2024/02/25 06:26:44;;;;;;;2.37;2.17;;;7.20;59.70;;;;;;5007847;28;20198;-55
2024/02/25 06:29:10;;;;;;;2.23;2.03;;;7.20;59.80;;;;;;5008402;28;20370;-54
2024/02/25 06:31:36;;;;;;;2.40;2.20;;;7.20;59.80;;;;;;5009115;28;20444;-54
2024/02/25 06:34:01;;;;;;;2.33;2.13;;;7.50;61.50;;;;;;5004735;28;20952;-58
2024/02/25 06:36:27;;;;;;;3.00;2.30;;;7.90;62.20;;;;;;5009517;28;20686;-57
2024/02/25 06:38:53;;;;;;;2.60;2.00;;;8.20;62.30;;;;;;5008515;28;20662;-55
2024/02/25 06:41:19;;;;;;;5.63;2.50;;;8.60;61.70;;;;;;5007629;28;20190;-56
2024/02/25 06:43:45;;;;;;;3.53;2.67;;;8.30;59.20;;;;;;5009617;28;20516;-54
2024/02/25 06:46:10;;;;;;;2.03;1.90;;;8.60;59.70;;;;;;5006399;28;21132;-55
2024/02/25 06:48:36;;;;;;;2.17;2.07;;;9.00;59.20;;;;;;5006536;28;20221;-54
2024/02/25 06:51:02;;;;;;;2.87;1.97;;;9.20;58.70;;;;;;5002898;28;20680;-58
2024/02/25 06:53:27;;;;;;;2.17;1.80;;;9.50;57.80;;;;;;5006407;28;20308;-59
2024/02/25 06:55:53;;;;;;;3.17;2.27;;;9.50;56.90;;;;;;5005768;28;20196;-56
2024/02/25 06:58:18;;;;;;;4.17;2.90;;;9.70;58.30;;;;;;5006236;28;20831;-58
2024/02/25 07:00:46;;;;;;;3.13;2.40;;;9.90;57.40;;;;;;5008644;28;20606;-55
2024/02/25 07:03:12;;;;;;;3.13;2.80;;;10.00;55.90;;;;;;5007861;28;20190;-59
2024/02/25 07:05:37;;;;;;;3.77;2.33;;;10.20;55.40;;;;;;5008739;28;20441;-57
2024/02/25 07:08:03;;;;;;;2.77;2.53;;;10.40;54.90;;;;;;5004914;28;20186;-58
2024/02/25 07:10:29;;;;;;;4.33;2.27;;;10.40;53.80;;;;;;5007344;28;20209;-58
2024/02/25 07:12:56;;;;;;;3.07;2.80;;;10.50;54.80;;;;;;5006066;28;20217;-57
2024/02/25 07:15:21;;;;;;;3.43;2.83;;;10.70;53.10;;;;;;5004838;28;20439;-56
2024/02/25 07:17:47;;;;;;;3.60;3.20;;;10.80;53.50;;;;;;5002554;28;20472;-55
2024/02/25 07:20:13;;;;;;;3.40;2.60;;;10.70;53.00;;;;;;5005720;28;20194;-55
2024/02/25 07:22:38;;;;;;;2.47;2.27;;;10.90;53.20;;;;;;5010129;28;20190;-59
2024/02/25 07:25:04;;;;;;;3.50;3.20;;;11.20;52.90;;;;;;5004548;28;20191;-57
2024/02/25 07:27:29;;;;;;;2.60;2.40;;;11.20;51.90;;;;;;5007839;28;20209;-59
2024/02/25 07:29:55;;;;;;;2.97;2.77;;;11.40;51.70;;;;;;5006885;28;20716;-56
2024/02/25 07:32:21;;;;;;;3.00;2.70;;;11.60;51.60;;;;;;5006183;28;20626;-56
2024/02/25 07:34:46;;;;;;;10.13;3.47;;;11.80;51.50;;;;;;5004950;28;20185;-59
2024/02/25 07:37:12;;;;;;;3.63;3.33;;;11.90;51.20;;;;;;5006916;28;20272;-58
2024/02/25 07:39:38;;;;;;;4.97;4.03;;;12.00;51.00;;;;;;5005330;28;20349;-57
2024/02/25 07:42:03;;;;;;;3.60;3.27;;;12.10;50.50;;;;;;5006575;28;20214;-57
2024/02/25 07:44:29;;;;;;;3.50;3.20;;;12.10;50.40;;;;;;5005638;28;20870;-59
2024/02/25 07:46:55;;;;;;;3.30;3.00;;;12.10;50.40;;;;;;5005714;28;20572;-60
2024/02/25 07:49:20;;;;;;;4.20;3.13;;;12.10;50.60;;;;;;5003939;28;20297;-59
2024/02/25 07:51:46;;;;;;;6.17;3.10;;;12.20;51.00;;;;;;5003949;28;20186;-58
2024/02/25 07:54:11;;;;;;;3.30;2.60;;;12.20;51.40;;;;;;5005537;28;20249;-58
2024/02/25 07:56:37;;;;;;;2.63;2.43;;;12.20;51.30;;;;;;5007025;28;20198;-59
2024/02/25 07:59:02;;;;;;;2.67;2.47;;;12.20;51.30;;;;;;5001677;28;20190;-60
2024/02/25 08:01:28;;;;;;;2.60;2.40;;;12.10;51.30;;;;;;5009082;28;20190;-60
2024/02/25 08:03:54;;;;;;;4.03;3.37;;;12.10;51.60;;;;;;5006362;28;20182;-58
2024/02/25 08:06:27;;;;;;;2.50;2.30;;;12.10;51.50;;;;;;5007937;28;20763;-58
2024/02/25 08:08:56;;;;;;;2.90;2.60;;;12.10;51.60;;;;;;5007288;28;20228;-58
2024/02/25 08:11:22;;;;;;;2.80;2.40;;;12.10;52.10;;;;;;5003961;28;20444;-58
2024/02/25 08:13:48;;;;;;;3.20;2.90;;;12.20;52.10;;;;;;5007220;28;20433;-57
2024/02/25 08:16:13;;;;;;;3.30;3.03;;;12.30;52.30;;;;;;5007029;28;20261;-57
2024/02/25 08:18:47;;;;;;;2.80;2.47;;;12.20;51.70;;;;;;5006056;28;20638;-60
2024/02/25 08:21:13;;;;;;;3.00;2.80;;;12.30;52.10;;;;;;5004541;28;20407;-56
2024/02/25 08:23:39;;;;;;;3.30;3.00;;;12.30;51.90;;;;;;5004665;28;20440;-57
2024/02/25 08:26:07;;;;;;;3.73;3.20;;;12.40;52.30;;;;;;5006264;28;20822;-57
2024/02/25 08:28:32;;;;;;;3.63;3.33;;;12.50;51.70;;;;;;5006774;28;20896;-57
2024/02/25 08:30:58;;;;;;;3.87;3.57;;;12.60;51.60;;;;;;5008123;28;20457;-59
2024/02/25 08:33:23;;;;;;;3.77;3.47;;;12.60;51.70;;;;;;5006460;28;20185;-57
2024/02/25 08:35:49;;;;;;;4.50;3.50;;;12.60;52.10;;;;;;5007141;28;20217;-58
2024/02/25 08:38:14;;;;;;;3.97;3.57;;;12.30;52.40;;;;;;5001447;28;20191;-57
2024/02/25 08:40:40;;;;;;;3.50;3.20;;;12.50;52.90;;;;;;5005962;28;20674;-57
2024/02/25 08:43:05;;;;;;;6.47;4.90;;;12.60;52.70;;;;;;5005518;28;20186;-57
2024/02/25 08:45:31;;;;;;;4.87;4.37;;;12.80;52.70;;;;;;5006833;28;20557;-57
2024/02/25 08:47:57;;;;;;;6.83;4.33;;;12.80;52.40;;;;;;4999401;28;20583;-60
2024/02/25 08:50:22;;;;;;;7.60;3.87;;;12.90;52.20;;;;;;5007882;28;20209;-59
2024/02/25 08:52:48;;;;;;;3.40;3.10;;;13.00;51.80;;;;;;5002890;28;20186;-55
2024/02/25 08:55:13;;;;;;;3.83;3.20;;;12.90;52.40;;;;;;5006505;28;20182;-57
2024/02/25 08:57:39;;;;;;;5.80;3.37;;;12.90;51.90;;;;;;5004525;28;20213;-59
2024/02/25 09:00:07;;;;;;;4.37;3.20;;;13.00;51.40;;;;;;5001012;28;20192;-54
2024/02/25 09:02:34;;;;;;;3.60;3.00;;;13.10;51.00;;;;;;5004311;28;20196;-55
2024/02/25 09:05:00;;;;;;;3.23;2.80;;;13.20;50.80;;;;;;5005319;28;20590;-56
2024/02/25 09:07:26;;;;;;;2.40;2.20;;;13.30;50.00;;;;;;5003427;28;20544;-56
2024/02/25 09:09:51;;;;;;;3.50;2.67;;;13.30;49.70;;;;;;5008886;28;20218;-58
2024/02/25 09:12:17;;;;;;;4.20;3.50;;;13.40;49.20;;;;;;5005795;28;20263;-57
2024/02/25 09:14:43;;;;;;;3.87;2.77;;;13.50;48.90;;;;;;5004464;28;20281;-60
2024/02/25 09:17:08;;;;;;;3.20;2.90;;;13.60;48.90;;;;;;4991991;28;20213;-57
2024/02/25 09:19:34;;;;;;;3.50;2.80;;;13.50;48.50;;;;;;5005794;28;21493;-57
2024/02/25 09:21:59;;;;;;;3.17;2.60;;;13.60;48.70;;;;;;5002878;28;20313;-60
2024/02/25 09:24:25;;;;;;;3.33;2.70;;;13.60;48.60;;;;;;5007092;28;20186;-56
2024/02/25 09:26:51;;;;;;;3.00;2.70;;;13.60;48.00;;;;;;5002622;28;20206;-57
2024/02/25 09:29:20;;;;;;;2.30;2.10;;;13.70;48.00;;;;;;5009881;28;20487;-58
2024/02/25 09:31:45;;;;;;;4.13;2.60;;;13.80;48.00;;;;;;5011015;28;20241;-60
2024/02/25 09:34:12;;;;;;;2.37;2.17;;;13.90;48.30;;;;;;5009904;28;20873;-57
2024/02/25 09:36:41;;;;;;;2.63;2.43;;;14.00;48.30;;;;;;5008926;28;20574;-60
2024/02/25 09:39:06;;;;;;;3.10;2.80;;;14.00;48.00;;;;;;5008751;28;20523;-55
2024/02/25 09:41:42;;;;;;;2.73;2.53;;;14.10;47.60;;;;;;5006354;28;22286;-56
2024/02/25 09:44:23;;;;;;;2.20;2.00;;;14.20;47.60;;;;;;5003621;28;20195;-59
2024/02/25 09:46:51;;;;;;;3.70;2.30;;;14.30;46.80;;;;;;5001377;28;20474;-58
2024/02/25 09:49:18;;;;;;;1.60;1.50;;;14.20;46.40;;;;;;5009272;28;20535;-59
2024/02/25 09:51:47;;;;;;;1.33;1.23;;;14.30;45.80;;;;;;5006990;28;20498;-59
2024/02/25 09:54:13;;;;;;;1.37;1.27;;;14.20;44.30;;;;;;5008278;28;20967;-56
2024/02/25 09:56:39;;;;;;;1.30;1.20;;;14.20;44.30;;;;;;5008900;28;20472;-59
2024/02/25 09:59:05;;;;;;;1.70;1.60;;;14.30;44.20;;;;;;5006726;28;20984;-59
2024/02/25 10:01:32;;;;;;;2.90;1.63;;;14.20;44.00;;;;;;5010479;28;20186;-60
2024/02/25 10:03:58;;;;;;;1.23;1.13;;;14.30;44.00;;;;;;5005391;28;20191;-60
2024/02/25 10:06:27;;;;;;;2.17;1.20;;;14.30;44.00;;;;;;5010196;28;20460;-57
2024/02/25 10:08:52;;;;;;;1.70;1.33;;;14.50;43.70;;;;;;5000871;28;20781;-58
2024/02/25 10:11:18;;;;;;;2.40;1.30;;;14.60;43.30;;;;;;5007600;28;20560;-55
2024/02/25 10:13:46;;;;;;;1.30;1.20;;;14.70;43.40;;;;;;5005624;28;20182;-58
2024/02/25 10:16:16;;;;;;;1.30;1.20;;;14.80;43.40;;;;;;5011051;28;20841;-57
2024/02/25 10:18:42;;;;;;;1.33;1.23;;;14.90;42.60;;;;;;5008253;28;20428;-58
2024/02/25 10:21:08;;;;;;;1.40;1.30;;;15.00;42.70;;;;;;5009737;28;21070;-56
2024/02/25 10:23:34;;;;;;;1.50;1.40;;;15.00;43.00;;;;;;5008015;28;20448;-58
2024/02/25 10:26:21;;;;;;;2.20;1.10;;;15.20;42.60;;;;;;5004699;28;20293;-60
2024/02/25 10:28:47;;;;;;;1.23;1.13;;;15.50;42.70;;;;;;5007973;28;20484;-59
2024/02/25 10:31:16;;;;;;;1.00;0.90;;;15.80;41.70;;;;;;5010287;28;20456;-59
2024/02/25 10:33:44;;;;;;;1.27;0.97;;;15.60;41.70;;;;;;5006766;28;20532;-57
2024/02/25 10:36:16;;;;;;;1.30;1.10;;;15.80;41.70;;;;;;5007474;28;20477;-55
2024/02/25 10:38:46;;;;;;;1.07;0.97;;;15.80;39.60;;;;;;5005246;28;20843;-55
2024/02/25 10:41:13;;;;;;;1.57;1.07;;;15.80;39.90;;;;;;5007571;28;20456;-57
2024/02/25 10:43:40;;;;;;;2.20;1.13;;;16.10;40.20;;;;;;5007508;28;20437;-55
2024/02/25 10:46:41;;;;;;;0.93;0.93;;;16.10;38.80;;;;;;5005408;28;20529;-59
2024/02/25 10:49:08;;;;;;;1.10;0.97;;;16.20;39.30;;;;;;5006040;28;20563;-59
2024/02/25 10:51:35;;;;;;;1.03;0.93;;;16.10;38.60;;;;;;5010109;28;20444;-57
2024/02/25 10:54:01;;;;;;;1.00;0.90;;;16.20;38.70;;;;;;5008684;28;20437;-56
2024/02/25 10:56:29;;;;;;;1.43;0.90;;;16.40;38.40;;;;;;5009022;28;21057;-61
2024/02/25 10:58:56;;;;;;;2.40;1.10;;;16.40;38.50;;;;;;5007078;28;20432;-60
2024/02/25 11:01:24;;;;;;;3.80;1.40;;;16.50;38.50;;;;;;5007699;28;20445;-59
2024/02/25 11:03:50;;;;;;;2.20;1.20;;;16.40;39.00;;;;;;5004189;28;20560;-60
2024/02/25 11:06:33;;;;;;;1.20;0.90;;;16.70;38.70;;;;;;5007668;28;20556;-58
2024/02/25 11:09:05;;;;;;;1.40;1.23;;;16.40;38.50;;;;;;5009018;28;20473;-60
2024/02/25 11:11:31;;;;;;;2.10;1.30;;;16.70;38.80;;;;;;5005269;28;20452;-59
2024/02/25 11:14:00;;;;;;;2.77;1.17;;;16.50;38.00;;;;;;5010082;28;20928;-57
2024/02/25 11:16:39;;;;;;;3.07;1.70;;;16.40;39.00;;;;;;5006513;28;20210;-57
2024/02/25 11:19:07;;;;;;;1.53;1.20;;;16.50;39.20;;;;;;5007512;28;20440;-57
2024/02/25 11:21:35;;;;;;;1.53;1.43;;;16.60;39.10;;;;;;5006457;28;20442;-60
2024/02/25 11:24:01;;;;;;;1.30;1.20;;;16.40;38.80;;;;;;5005965;28;20443;-56
2024/02/25 11:26:33;;;;;;;1.30;1.20;;;16.20;39.80;;;;;;5003323;28;20531;-62
2024/02/25 11:29:19;;;;;;;1.57;1.20;;;16.60;39.50;;;;;;5003547;28;20228;-57
2024/02/25 11:32:01;;;;;;;1.73;1.43;;;17.20;39.30;;;;;;5007253;28;20444;-58
2024/02/25 11:34:34;;;;;;;2.20;1.27;;;17.30;37.90;;;;;;5009088;28;20456;-57
2024/02/25 11:37:02;;;;;;;1.63;1.23;;;17.60;37.90;;;;;;5003224;28;20476;-59
2024/02/25 11:39:30;;;;;;;2.40;1.30;;;18.00;37.30;;;;;;5003376;28;20433;-58
2024/02/25 11:42:03;;;;;;;2.73;1.43;;;18.10;37.10;;;;;;5004682;28;20441;-59
2024/02/25 11:44:31;;;;;;;1.47;1.33;;;18.20;36.30;;;;;;5006743;28;20437;-56
2024/02/25 11:46:58;;;;;;;1.67;1.10;;;17.90;36.10;;;;;;5003823;28;21042;-57
2024/02/25 11:49:25;;;;;;;1.40;1.30;;;17.70;36.90;;;;;;5007385;28;20514;-58
2024/02/25 11:51:52;;;;;;;2.43;2.23;;;17.70;36.50;;;;;;5004316;28;20425;-58
2024/02/25 11:54:19;;;;;;;2.40;1.30;;;17.70;36.50;;;;;;5004343;28;20438;-57
2024/02/25 11:56:45;;;;;;;1.70;1.30;;;17.90;36.30;;;;;;5007216;28;20885;-56
2024/02/25 11:59:11;;;;;;;1.30;1.20;;;17.80;36.40;;;;;;5004570;28;20439;-58
2024/02/25 12:01:37;;;;;;;1.23;1.13;;;17.80;36.20;;;;;;5008241;28;20274;-57
2024/02/25 12:04:04;;;;;;;1.30;1.20;;;17.60;35.80;;;;;;5000359;28;20904;-57
2024/02/25 12:06:34;;;;;;;2.50;1.10;;;17.60;35.40;;;;;;5008336;28;20715;-57
2024/02/25 12:09:00;;;;;;;1.67;1.10;;;17.70;35.00;;;;;;5008291;28;20479;-58
2024/02/25 12:11:26;;;;;;;1.03;0.93;;;17.80;34.60;;;;;;5007478;28;20440;-59
2024/02/25 12:14:01;;;;;;;0.90;0.77;;;17.80;34.40;;;;;;5008287;28;20936;-59
2024/02/25 12:16:29;;;;;;;1.00;0.90;;;17.90;33.90;;;;;;5004076;28;20212;-59
2024/02/25 12:18:55;;;;;;;2.43;1.10;;;17.80;33.20;;;;;;5008630;28;20523;-57
2024/02/25 12:21:22;;;;;;;1.40;0.90;;;18.00;33.30;;;;;;5004803;28;20571;-58
2024/02/25 12:23:48;;;;;;;0.87;0.87;;;18.10;33.20;;;;;;5008666;28;20661;-58
2024/02/25 12:26:14;;;;;;;1.20;0.97;;;18.10;33.20;;;;;;5007581;28;20469;-58
2024/02/25 12:28:40;;;;;;;0.80;0.70;;;18.20;32.40;;;;;;5004839;28;20213;-57
2024/02/25 12:31:06;;;;;;;0.80;0.80;;;18.30;33.10;;;;;;5008237;28;20193;-57
2024/02/25 12:33:32;;;;;;;1.37;1.10;;;18.50;32.20;;;;;;5004807;28;20951;-60
2024/02/25 12:36:00;;;;;;;0.90;0.90;;;18.30;32.00;;;;;;5007247;28;20539;-59
2024/02/25 12:38:26;;;;;;;1.00;1.00;;;18.20;32.50;;;;;;5001649;28;20456;-58
2024/02/25 12:40:54;;;;;;;1.07;0.73;;;18.40;32.80;;;;;;5006396;28;22645;-57
2024/02/25 12:43:20;;;;;;;1.20;1.10;;;18.20;33.60;;;;;;5007028;28;20453;-56
2024/02/25 12:45:47;;;;;;;1.27;0.87;;;18.40;33.70;;;;;;5007170;28;20424;-56
2024/02/25 12:48:12;;;;;;;1.30;1.20;;;18.50;33.80;;;;;;5006660;28;20269;-60
2024/02/25 12:50:38;;;;;;;1.23;0.93;;;18.40;32.50;;;;;;5006958;28;20508;-57